Time;durP1;ratioP1;P1;durP2;ratioP2;P2;SDS_P1;SDS_P2;PMS_P1;PMS_P2;Temp;Humidity;BMP_temperature;BMP_pressure;BME280_temperature;BME280_humidity;BME280_pressure;Samples;Min_cycle;Max_cycle;Signal;HPM_P1;HPM_P2
2023/12/14 00:01:14;;;;;;;2.13;1.27;;;12.60;99.90;;;;;;5011423;28;20025;-44
2023/12/14 00:03:46;;;;;;;1.83;1.20;;;12.60;99.90;;;;;;5012461;28;20100;-45
2023/12/14 00:06:12;;;;;;;2.25;1.13;;;12.60;99.90;;;;;;5012240;28;20060;-44
2023/12/14 00:08:37;;;;;;;1.88;1.10;;;12.60;99.90;;;;;;5011774;28;20041;-43
2023/12/14 00:11:05;;;;;;;1.58;1.00;;;12.60;99.90;;;;;;5012725;28;20033;-44
2023/12/14 00:13:30;;;;;;;2.78;1.50;;;12.60;99.90;;;;;;5012228;28;20022;-45
2023/12/14 00:15:56;;;;;;;3.40;1.20;;;12.60;99.90;;;;;;5012180;28;20384;-45
2023/12/14 00:18:21;;;;;;;1.58;1.13;;;12.60;99.90;;;;;;5013223;28;20034;-44
2023/12/14 00:20:48;;;;;;;2.35;1.15;;;12.60;99.90;;;;;;5011291;28;20097;-43
2023/12/14 00:23:13;;;;;;;2.38;1.33;;;12.60;99.90;;;;;;5011225;28;20486;-43
2023/12/14 00:25:39;;;;;;;3.00;1.25;;;12.50;99.90;;;;;;5011639;28;20058;-44
2023/12/14 00:28:05;;;;;;;2.15;1.40;;;12.50;99.90;;;;;;5011775;28;20117;-44
2023/12/14 00:30:30;;;;;;;1.58;1.10;;;12.50;99.90;;;;;;5011616;28;20030;-45
2023/12/14 00:32:56;;;;;;;1.70;1.00;;;12.50;99.90;;;;;;5012304;28;20034;-43
2023/12/14 00:35:21;;;;;;;2.13;1.20;;;12.50;99.90;;;;;;5015811;28;20040;-44
2023/12/14 00:37:47;;;;;;;2.13;1.30;;;12.50;99.90;;;;;;5015123;28;20575;-45
2023/12/14 00:40:13;;;;;;;1.67;1.00;;;12.50;99.90;;;;;;5015866;28;20026;-43
2023/12/14 00:42:38;;;;;;;1.98;1.05;;;12.50;99.90;;;;;;5016277;28;20496;-44
2023/12/14 00:45:04;;;;;;;2.38;1.30;;;12.50;99.90;;;;;;5016050;28;20030;-45
2023/12/14 00:47:30;;;;;;;4.38;1.20;;;12.50;99.90;;;;;;5014736;28;20087;-44
2023/12/14 00:49:55;;;;;;;1.70;1.17;;;12.50;99.90;;;;;;5014847;28;20022;-44
2023/12/14 00:52:21;;;;;;;2.35;1.05;;;12.50;99.90;;;;;;5015236;28;20369;-44
2023/12/14 00:54:47;;;;;;;1.10;0.70;;;12.50;99.90;;;;;;5014517;28;20065;-45
2023/12/14 00:57:12;;;;;;;1.35;1.00;;;12.40;99.90;;;;;;5014511;28;20499;-45
2023/12/14 00:59:38;;;;;;;1.50;0.90;;;12.50;99.90;;;;;;5014391;28;20025;-45
2023/12/14 01:02:04;;;;;;;1.80;1.00;;;12.40;99.90;;;;;;5015665;28;20041;-44
2023/12/14 01:04:29;;;;;;;1.58;0.90;;;12.40;99.90;;;;;;5015120;28;20026;-44
2023/12/14 01:06:55;;;;;;;1.45;1.00;;;12.40;99.90;;;;;;5015020;28;20033;-42
2023/12/14 01:09:20;;;;;;;1.98;1.17;;;12.50;99.90;;;;;;5015398;28;20113;-43
2023/12/14 01:11:46;;;;;;;1.42;0.90;;;12.40;99.90;;;;;;5015499;28;20042;-44
2023/12/14 01:14:12;;;;;;;1.73;0.95;;;12.40;99.90;;;;;;5014684;28;20033;-45
2023/12/14 01:16:38;;;;;;;1.45;0.90;;;12.40;99.90;;;;;;5015102;28;20026;-44
2023/12/14 01:19:05;;;;;;;1.45;0.93;;;12.40;99.90;;;;;;5014548;28;20053;-44
2023/12/14 01:21:31;;;;;;;1.60;1.10;;;12.40;99.90;;;;;;5015812;28;20030;-43
2023/12/14 01:23:57;;;;;;;1.77;0.88;;;12.40;99.90;;;;;;5014713;28;20061;-45
2023/12/14 01:26:23;;;;;;;1.20;0.98;;;12.40;99.90;;;;;;5015478;28;20056;-44
2023/12/14 01:28:48;;;;;;;1.30;0.85;;;12.40;99.90;;;;;;5014205;28;20140;-43
2023/12/14 01:31:14;;;;;;;2.17;1.02;;;12.40;99.90;;;;;;5015369;28;20026;-44
2023/12/14 01:33:40;;;;;;;1.40;1.00;;;12.40;99.90;;;;;;5014719;28;20029;-43
2023/12/14 01:36:05;;;;;;;1.15;0.82;;;12.40;99.90;;;;;;5014938;28;20036;-45
2023/12/14 01:38:31;;;;;;;1.42;0.90;;;12.30;99.90;;;;;;5013933;28;20114;-44
2023/12/14 01:40:58;;;;;;;1.65;0.77;;;12.40;99.90;;;;;;5014182;28;20026;-45
2023/12/14 01:43:23;;;;;;;1.25;0.73;;;12.40;99.90;;;;;;5015338;28;20068;-43
2023/12/14 01:45:49;;;;;;;0.90;0.70;;;12.30;99.90;;;;;;5014249;28;20104;-44
2023/12/14 01:48:14;;;;;;;1.42;0.80;;;12.30;99.90;;;;;;5015139;28;20534;-43
2023/12/14 01:50:40;;;;;;;1.23;0.80;;;12.30;99.90;;;;;;5014778;28;20030;-45
2023/12/14 01:53:06;;;;;;;0.70;0.65;;;12.30;99.90;;;;;;5014552;28;20030;-43
2023/12/14 01:55:31;;;;;;;0.95;0.80;;;12.30;99.90;;;;;;5014161;28;20061;-44
2023/12/14 01:57:57;;;;;;;1.20;0.80;;;12.30;99.90;;;;;;5014537;28;20026;-45
2023/12/14 02:00:39;;;;;;;1.70;0.95;;;12.30;99.90;;;;;;5014067;28;20076;-44
2023/12/14 02:03:05;;;;;;;1.35;0.90;;;12.30;99.90;;;;;;5014458;28;20032;-45
2023/12/14 02:05:31;;;;;;;1.40;0.80;;;12.30;99.90;;;;;;5013167;28;20042;-45
2023/12/14 02:07:57;;;;;;;2.08;0.90;;;12.30;99.90;;;;;;5013578;28;20084;-44
2023/12/14 02:10:23;;;;;;;1.40;0.90;;;12.30;99.90;;;;;;5013677;28;20511;-44
2023/12/14 02:12:48;;;;;;;1.15;0.88;;;12.30;99.90;;;;;;5012333;28;20065;-44
2023/12/14 02:15:14;;;;;;;1.10;0.65;;;12.30;99.90;;;;;;5014283;28;20105;-44
2023/12/14 02:17:40;;;;;;;1.10;0.70;;;12.30;99.90;;;;;;5013334;28;20072;-45
2023/12/14 02:20:06;;;;;;;1.30;0.80;;;12.30;99.90;;;;;;5014532;28;20407;-44
2023/12/14 02:22:54;;;;;;;1.33;0.70;;;12.30;99.90;;;;;;5014384;28;20040;-45
2023/12/14 02:25:22;;;;;;;0.80;0.50;;;12.30;99.90;;;;;;5013922;28;20104;-43
2023/12/14 02:27:50;;;;;;;0.90;0.80;;;12.30;99.90;;;;;;5014031;28;20383;-43
2023/12/14 02:30:16;;;;;;;0.98;0.60;;;12.30;99.90;;;;;;5013858;28;20022;-45
2023/12/14 02:32:42;;;;;;;1.25;0.80;;;12.30;99.90;;;;;;5014024;28;20053;-45
2023/12/14 02:35:08;;;;;;;1.60;0.70;;;12.30;99.90;;;;;;5014359;28;20522;-44
2023/12/14 02:37:36;;;;;;;0.82;0.60;;;12.30;99.90;;;;;;5013965;28;20034;-43
2023/12/14 02:40:03;;;;;;;1.10;0.80;;;12.30;99.90;;;;;;5014003;28;20022;-45
2023/12/14 02:42:29;;;;;;;1.33;0.80;;;12.30;99.90;;;;;;5013847;28;20090;-43
2023/12/14 02:44:56;;;;;;;0.90;0.70;;;12.30;99.90;;;;;;5013301;28;20030;-43
2023/12/14 02:47:21;;;;;;;1.17;0.70;;;12.30;99.90;;;;;;5013547;28;20511;-43
2023/12/14 02:49:47;;;;;;;0.95;0.70;;;12.30;99.90;;;;;;5013417;28;20068;-43
2023/12/14 02:52:13;;;;;;;0.70;0.50;;;12.30;99.90;;;;;;5014310;28;20109;-44
2023/12/14 02:54:39;;;;;;;0.90;0.70;;;12.20;99.90;;;;;;5014356;28;20045;-45
2023/12/14 02:57:04;;;;;;;1.20;0.60;;;12.20;99.90;;;;;;5011342;28;20052;-45
2023/12/14 02:59:30;;;;;;;1.20;0.90;;;12.20;99.90;;;;;;5012465;28;20527;-44
2023/12/14 03:01:56;;;;;;;0.88;0.60;;;12.20;99.90;;;;;;5012692;28;20083;-45
2023/12/14 03:04:22;;;;;;;1.75;0.82;;;12.20;99.90;;;;;;5012649;28;20045;-44
2023/12/14 03:06:47;;;;;;;0.77;0.60;;;12.20;99.90;;;;;;5012932;28;20030;-45
2023/12/14 03:09:13;;;;;;;0.80;0.65;;;12.20;99.90;;;;;;5012816;28;20099;-45
2023/12/14 03:11:38;;;;;;;1.20;0.55;;;12.20;99.90;;;;;;5013406;28;20478;-45
2023/12/14 03:14:04;;;;;;;1.48;0.80;;;12.20;99.90;;;;;;5013792;28;20022;-44
2023/12/14 03:16:30;;;;;;;1.67;0.73;;;12.20;99.90;;;;;;5012548;28;20119;-45
2023/12/14 03:18:56;;;;;;;1.33;0.73;;;12.20;99.90;;;;;;5012409;28;20294;-43
2023/12/14 03:21:23;;;;;;;1.10;0.70;;;12.20;99.90;;;;;;5013657;28;20496;-43
2023/12/14 03:23:49;;;;;;;0.82;0.60;;;12.20;99.90;;;;;;5012379;28;20030;-45
2023/12/14 03:26:14;;;;;;;1.10;0.60;;;12.20;99.90;;;;;;5012963;28;20030;-44
2023/12/14 03:28:40;;;;;;;0.63;0.60;;;12.20;99.90;;;;;;5011837;28;20025;-44
2023/12/14 03:31:05;;;;;;;0.73;0.50;;;12.20;99.90;;;;;;5012544;28;20034;-45
2023/12/14 03:33:31;;;;;;;0.80;0.60;;;12.20;99.90;;;;;;5013089;28;20130;-45
2023/12/14 03:35:57;;;;;;;1.10;0.68;;;12.20;99.90;;;;;;5011707;28;20575;-45
2023/12/14 03:38:22;;;;;;;1.52;0.73;;;12.20;99.90;;;;;;5011748;28;20029;-43
2023/12/14 03:40:48;;;;;;;1.08;0.50;;;12.20;99.90;;;;;;5011904;28;20029;-43
2023/12/14 03:43:14;;;;;;;0.77;0.68;;;12.20;99.90;;;;;;5012944;28;20026;-43
2023/12/14 03:45:39;;;;;;;1.38;0.55;;;12.20;99.90;;;;;;5012440;28;20034;-45
2023/12/14 03:48:05;;;;;;;1.15;0.52;;;12.10;99.90;;;;;;5012171;28;20037;-44
2023/12/14 03:50:32;;;;;;;0.90;0.60;;;12.10;99.90;;;;;;5011788;28;20591;-43
2023/12/14 03:52:58;;;;;;;0.65;0.52;;;12.20;99.90;;;;;;5012915;28;20473;-45
2023/12/14 03:55:24;;;;;;;0.88;0.70;;;12.20;99.90;;;;;;5012650;28;20069;-45
2023/12/14 03:57:50;;;;;;;0.85;0.60;;;12.20;99.90;;;;;;5013293;28;20383;-45
2023/12/14 04:00:16;;;;;;;1.02;0.50;;;12.20;99.90;;;;;;5012070;28;20101;-44
2023/12/14 04:02:42;;;;;;;0.60;0.50;;;12.10;99.90;;;;;;5011186;28;20014;-44
2023/12/14 04:05:08;;;;;;;1.10;0.60;;;12.10;99.90;;;;;;5011804;28;20053;-44
2023/12/14 04:07:36;;;;;;;0.88;0.55;;;12.10;99.90;;;;;;5011926;28;20050;-43
2023/12/14 04:10:02;;;;;;;0.52;0.40;;;12.10;99.90;;;;;;5015903;28;20102;-44
2023/12/14 04:12:27;;;;;;;0.52;0.40;;;12.20;99.90;;;;;;5016959;28;20057;-44
2023/12/14 04:14:53;;;;;;;0.70;0.50;;;12.10;99.90;;;;;;5015994;28;20025;-45
2023/12/14 04:17:18;;;;;;;1.20;0.50;;;12.10;99.90;;;;;;5015823;28;20029;-43
2023/12/14 04:19:44;;;;;;;0.93;0.70;;;12.10;99.90;;;;;;5017028;28;20018;-45
2023/12/14 04:22:09;;;;;;;0.70;0.40;;;12.20;99.90;;;;;;5017023;28;20064;-44
2023/12/14 04:24:35;;;;;;;0.88;0.57;;;12.10;99.90;;;;;;5015888;28;20070;-45
2023/12/14 04:27:01;;;;;;;0.77;0.68;;;12.10;99.90;;;;;;5015554;28;20026;-43
2023/12/14 04:29:26;;;;;;;0.60;0.50;;;12.10;99.90;;;;;;5015668;28;20116;-44
2023/12/14 04:31:53;;;;;;;0.90;0.50;;;12.10;99.90;;;;;;5015178;28;20041;-45
2023/12/14 04:34:19;;;;;;;1.02;0.60;;;12.10;99.90;;;;;;5015237;28;20025;-45
2023/12/14 04:36:48;;;;;;;0.65;0.50;;;12.10;99.90;;;;;;5015500;28;20101;-43
2023/12/14 04:39:14;;;;;;;0.85;0.57;;;12.10;99.90;;;;;;5016975;28;20026;-44
2023/12/14 04:41:39;;;;;;;0.80;0.60;;;12.10;99.90;;;;;;5015448;28;20105;-44
2023/12/14 04:44:05;;;;;;;0.75;0.55;;;12.10;99.90;;;;;;5016435;28;20044;-45
2023/12/14 04:46:30;;;;;;;1.15;0.60;;;12.10;99.90;;;;;;5016339;28;20032;-45
2023/12/14 04:48:56;;;;;;;0.60;0.55;;;12.10;99.90;;;;;;5016534;28;20040;-44
2023/12/14 04:51:22;;;;;;;0.60;0.50;;;12.10;99.90;;;;;;5014951;28;20114;-43
2023/12/14 04:53:47;;;;;;;0.60;0.50;;;12.10;99.90;;;;;;5016116;28;20400;-45
2023/12/14 04:56:13;;;;;;;0.63;0.50;;;12.10;99.90;;;;;;5014951;28;20029;-45
2023/12/14 04:58:39;;;;;;;0.80;0.60;;;12.10;99.90;;;;;;5015498;28;20022;-44
2023/12/14 05:01:06;;;;;;;0.80;0.68;;;12.10;99.90;;;;;;5015766;28;20037;-43
2023/12/14 05:03:33;;;;;;;0.75;0.70;;;12.10;99.90;;;;;;5015673;28;20396;-45
2023/12/14 05:05:59;;;;;;;0.95;0.60;;;12.10;99.90;;;;;;5015261;28;20026;-43
2023/12/14 05:08:25;;;;;;;0.65;0.50;;;12.10;99.90;;;;;;5014547;28;20026;-43
2023/12/14 05:10:50;;;;;;;0.50;0.50;;;12.10;99.90;;;;;;5015299;28;20030;-44
2023/12/14 05:13:16;;;;;;;0.73;0.60;;;12.10;99.90;;;;;;5014975;28;20112;-43
2023/12/14 05:15:42;;;;;;;1.38;0.68;;;12.10;99.90;;;;;;5014151;28;20024;-44
2023/12/14 05:18:08;;;;;;;1.63;0.55;;;12.10;99.90;;;;;;5014221;28;20040;-45
2023/12/14 05:20:35;;;;;;;0.73;0.52;;;12.10;99.90;;;;;;5014073;28;20026;-44
2023/12/14 05:23:00;;;;;;;0.93;0.60;;;12.10;99.90;;;;;;5014795;28;20076;-45
2023/12/14 05:25:26;;;;;;;0.70;0.50;;;12.10;99.90;;;;;;5015672;28;20017;-45
2023/12/14 05:27:51;;;;;;;0.63;0.40;;;12.10;99.90;;;;;;5015108;28;20387;-44
2023/12/14 05:30:20;;;;;;;1.60;0.80;;;12.10;99.90;;;;;;5014597;28;20049;-45
2023/12/14 05:32:46;;;;;;;0.90;0.60;;;12.10;99.90;;;;;;5014401;28;20026;-44
2023/12/14 05:35:12;;;;;;;0.80;0.50;;;12.10;99.90;;;;;;5014144;28;20033;-43
2023/12/14 05:37:41;;;;;;;0.70;0.50;;;12.00;99.90;;;;;;5013726;28;20026;-44
2023/12/14 05:40:09;;;;;;;0.73;0.55;;;12.00;99.90;;;;;;5015173;28;20022;-45
2023/12/14 05:42:34;;;;;;;1.15;0.60;;;12.10;99.90;;;;;;5015910;28;20057;-43
2023/12/14 05:45:00;;;;;;;0.90;0.65;;;12.00;99.90;;;;;;5013943;28;20061;-45
2023/12/14 05:47:27;;;;;;;1.00;0.70;;;12.10;99.90;;;;;;5014489;28;20471;-43
2023/12/14 05:49:52;;;;;;;0.60;0.50;;;12.00;99.90;;;;;;5014355;28;20053;-45
2023/12/14 05:52:18;;;;;;;1.88;0.70;;;12.00;99.90;;;;;;5014405;28;20041;-44
2023/12/14 05:54:43;;;;;;;1.25;0.75;;;12.00;99.90;;;;;;5014068;28;20428;-45
2023/12/14 05:57:12;;;;;;;1.17;0.55;;;12.00;99.90;;;;;;5014591;28;20034;-43
2023/12/14 05:59:39;;;;;;;0.73;0.50;;;12.10;99.90;;;;;;5014515;28;20025;-45
2023/12/14 06:02:06;;;;;;;0.70;0.60;;;12.00;99.90;;;;;;5015285;28;20524;-45
2023/12/14 06:04:32;;;;;;;0.90;0.77;;;12.00;99.90;;;;;;5013347;28;20420;-45
2023/12/14 06:06:58;;;;;;;0.80;0.70;;;12.00;99.90;;;;;;5013716;28;20355;-43
2023/12/14 06:09:29;;;;;;;0.70;0.50;;;12.00;99.90;;;;;;5014181;28;20056;-43
2023/12/14 06:11:55;;;;;;;1.05;0.77;;;12.00;99.90;;;;;;5013849;28;20365;-45
2023/12/14 06:14:20;;;;;;;1.15;0.77;;;12.10;99.90;;;;;;5013420;28;20034;-45
2023/12/14 06:16:46;;;;;;;0.88;0.60;;;12.10;99.90;;;;;;5013351;28;20111;-44
2023/12/14 06:19:12;;;;;;;0.73;0.65;;;12.20;99.90;;;;;;5013862;28;20515;-43
2023/12/14 06:21:37;;;;;;;1.65;0.68;;;12.20;99.90;;;;;;5013551;28;20026;-44
2023/12/14 06:24:03;;;;;;;0.60;0.50;;;12.20;99.90;;;;;;5013555;28;20061;-44
2023/12/14 06:26:29;;;;;;;0.68;0.55;;;12.20;99.90;;;;;;5013068;28;20047;-46
2023/12/14 06:28:54;;;;;;;0.80;0.68;;;12.30;99.90;;;;;;5014036;28;20072;-44
2023/12/14 06:31:21;;;;;;;0.63;0.60;;;12.30;99.90;;;;;;5012727;28;20033;-44
2023/12/14 06:33:48;;;;;;;0.88;0.80;;;12.30;99.90;;;;;;5012896;28;20041;-44
2023/12/14 06:36:17;;;;;;;1.23;0.55;;;12.30;99.90;;;;;;5013007;28;20026;-44
2023/12/14 06:38:43;;;;;;;0.77;0.57;;;12.30;99.90;;;;;;5013396;28;20026;-43
2023/12/14 06:41:20;;;;;;;0.93;0.70;;;12.30;99.90;;;;;;5013200;28;20403;-45
2023/12/14 06:43:46;;;;;;;0.70;0.60;;;12.40;99.90;;;;;;5014705;28;20029;-43
2023/12/14 06:46:11;;;;;;;1.10;0.70;;;12.40;99.90;;;;;;5013408;28;20085;-44
2023/12/14 06:48:37;;;;;;;0.95;0.55;;;12.40;99.90;;;;;;5012756;28;20046;-44
2023/12/14 06:51:03;;;;;;;1.13;0.85;;;12.40;99.90;;;;;;5013020;28;20037;-45
2023/12/14 06:53:29;;;;;;;1.48;0.88;;;12.40;99.90;;;;;;5013074;28;20137;-45
2023/12/14 06:55:55;;;;;;;1.05;0.60;;;12.40;99.90;;;;;;5013061;28;20025;-45
2023/12/14 06:58:21;;;;;;;0.98;0.80;;;12.40;99.90;;;;;;5013331;28;20494;-45
2023/12/14 07:00:47;;;;;;;0.70;0.60;;;12.40;99.90;;;;;;5013726;28;20087;-43
2023/12/14 07:03:13;;;;;;;0.70;0.50;;;12.40;99.90;;;;;;5012769;28;20014;-44
2023/12/14 07:05:39;;;;;;;0.90;0.80;;;12.40;99.90;;;;;;5012777;28;20026;-43
2023/12/14 07:08:04;;;;;;;0.80;0.70;;;12.40;99.90;;;;;;5012972;28;20029;-43
2023/12/14 07:10:30;;;;;;;1.02;0.77;;;12.40;99.90;;;;;;5013664;28;20607;-43
2023/12/14 07:12:56;;;;;;;2.25;0.70;;;12.40;99.90;;;;;;5012796;28;20018;-44
2023/12/14 07:15:22;;;;;;;0.82;0.65;;;12.40;99.90;;;;;;5013313;28;20045;-43
2023/12/14 07:17:48;;;;;;;0.90;0.60;;;12.40;99.90;;;;;;5011975;28;20045;-45
2023/12/14 07:20:13;;;;;;;1.25;0.68;;;12.40;99.90;;;;;;5011877;28;20022;-44
2023/12/14 07:22:39;;;;;;;0.57;0.57;;;12.40;99.90;;;;;;5012942;28;20467;-45
2023/12/14 07:25:05;;;;;;;1.05;0.85;;;12.40;99.90;;;;;;5013618;28;20117;-44
2023/12/14 07:27:31;;;;;;;1.60;0.73;;;12.40;99.90;;;;;;5012311;28;20057;-44
2023/12/14 07:29:57;;;;;;;1.15;0.80;;;12.40;99.90;;;;;;5012542;28;20060;-43
2023/12/14 07:32:22;;;;;;;1.63;0.80;;;12.40;99.90;;;;;;5012697;28;20069;-45
2023/12/14 07:34:48;;;;;;;0.95;0.85;;;12.40;99.90;;;;;;5012734;28;20034;-44
2023/12/14 07:37:14;;;;;;;1.00;0.82;;;12.40;99.90;;;;;;5012724;28;20467;-45
2023/12/14 07:39:40;;;;;;;0.85;0.75;;;12.40;99.90;;;;;;5012146;28;20049;-45
2023/12/14 07:42:05;;;;;;;1.10;0.80;;;12.30;99.90;;;;;;5012549;28;20431;-43
2023/12/14 07:44:31;;;;;;;1.00;0.90;;;12.40;99.90;;;;;;5011854;28;20108;-45
2023/12/14 07:47:01;;;;;;;1.20;0.90;;;12.30;99.90;;;;;;5011569;28;20038;-43
2023/12/14 07:49:26;;;;;;;1.25;0.82;;;12.30;99.90;;;;;;5011574;28;20072;-44
2023/12/14 07:51:52;;;;;;;1.30;0.98;;;12.30;99.90;;;;;;5011567;28;20026;-44
2023/12/14 07:54:18;;;;;;;1.02;0.80;;;12.30;99.90;;;;;;5012600;28;20419;-44
2023/12/14 07:56:44;;;;;;;0.93;0.82;;;12.30;99.90;;;;;;5012246;28;20029;-45
2023/12/14 07:59:10;;;;;;;0.70;0.60;;;12.30;99.90;;;;;;5011770;28;20026;-43
2023/12/14 08:01:36;;;;;;;0.90;0.77;;;12.30;99.90;;;;;;5013281;28;20021;-45
2023/12/14 08:04:03;;;;;;;1.40;1.00;;;12.30;99.90;;;;;;5012934;28;20105;-43
2023/12/14 08:06:29;;;;;;;1.35;1.02;;;12.30;99.90;;;;;;5011977;28;20026;-44
2023/12/14 08:08:57;;;;;;;1.70;1.15;;;12.30;99.90;;;;;;5012608;28;20025;-43
2023/12/14 08:11:23;;;;;;;1.50;1.00;;;12.30;99.90;;;;;;5012326;28;20056;-44
2023/12/14 08:13:49;;;;;;;3.08;0.98;;;12.40;99.90;;;;;;5012308;28;20029;-43
2023/12/14 08:16:17;;;;;;;1.55;0.98;;;12.40;99.90;;;;;;5012234;28;20030;-44
2023/12/14 08:18:44;;;;;;;1.90;0.90;;;12.40;99.90;;;;;;5011145;28;20037;-43
2023/12/14 08:21:10;;;;;;;1.02;0.82;;;12.40;99.90;;;;;;5012470;28;20026;-45
2023/12/14 08:23:36;;;;;;;1.30;1.13;;;12.40;99.90;;;;;;5012881;28;20395;-43
2023/12/14 08:26:02;;;;;;;0.93;0.73;;;12.50;99.90;;;;;;5012838;28;20340;-44
2023/12/14 08:28:28;;;;;;;0.98;0.80;;;12.50;99.90;;;;;;5012555;28;20034;-44
2023/12/14 08:30:53;;;;;;;1.27;1.02;;;12.50;99.90;;;;;;5012377;28;20057;-43
2023/12/14 08:33:19;;;;;;;1.13;0.80;;;12.60;99.90;;;;;;5013198;28;20037;-45
2023/12/14 08:35:45;;;;;;;1.27;0.90;;;12.60;99.90;;;;;;5011138;28;20042;-45
2023/12/14 08:38:10;;;;;;;1.45;0.88;;;12.70;99.90;;;;;;5011453;28;20030;-43
2023/12/14 08:40:38;;;;;;;1.30;1.00;;;12.70;99.90;;;;;;5012145;28;20076;-43
2023/12/14 08:43:04;;;;;;;1.42;0.80;;;12.70;99.90;;;;;;5010311;28;20038;-43
2023/12/14 08:45:30;;;;;;;1.08;0.80;;;12.80;99.90;;;;;;5011087;28;20034;-43
2023/12/14 08:47:56;;;;;;;0.70;0.60;;;12.80;99.90;;;;;;5011466;28;20029;-45
2023/12/14 08:50:21;;;;;;;1.27;0.80;;;12.80;99.90;;;;;;5011377;28;20030;-44
2023/12/14 08:52:47;;;;;;;1.55;0.80;;;12.90;99.90;;;;;;5012407;28;20037;-45
2023/12/14 08:55:14;;;;;;;1.05;0.80;;;13.00;99.90;;;;;;5015400;28;20029;-45
2023/12/14 08:57:39;;;;;;;1.20;0.80;;;13.00;99.90;;;;;;5015025;28;20487;-43
2023/12/14 09:00:06;;;;;;;0.65;0.45;;;13.00;99.90;;;;;;5016153;28;20032;-45
2023/12/14 09:02:32;;;;;;;0.75;0.70;;;13.10;99.90;;;;;;5015083;28;20099;-45
2023/12/14 09:04:58;;;;;;;0.65;0.63;;;13.10;99.90;;;;;;5015696;28;20570;-44
2023/12/14 09:07:24;;;;;;;1.63;1.00;;;13.20;99.90;;;;;;5015088;28;20033;-44
2023/12/14 09:09:50;;;;;;;1.10;1.00;;;13.20;99.90;;;;;;5016018;28;20094;-44
2023/12/14 09:12:15;;;;;;;1.85;1.30;;;13.30;99.90;;;;;;5015822;28;20061;-44
2023/12/14 09:14:41;;;;;;;2.90;1.50;;;13.30;99.90;;;;;;5014837;28;20381;-44
2023/12/14 09:17:07;;;;;;;2.60;1.40;;;13.40;99.90;;;;;;5015165;28;20102;-43
2023/12/14 09:19:32;;;;;;;2.10;1.42;;;13.40;99.90;;;;;;5014825;28;20379;-44
2023/12/14 09:21:58;;;;;;;4.00;1.40;;;13.40;99.90;;;;;;5014022;28;20048;-44
2023/12/14 09:24:24;;;;;;;1.45;1.30;;;13.50;99.90;;;;;;5014554;28;20018;-44
2023/12/14 09:26:52;;;;;;;1.67;1.25;;;13.50;99.90;;;;;;5014405;28;20112;-44
2023/12/14 09:29:18;;;;;;;2.13;1.48;;;13.60;99.90;;;;;;5014973;28;20026;-44
2023/12/14 09:31:45;;;;;;;1.38;1.23;;;13.60;99.90;;;;;;5014545;28;20041;-44
2023/12/14 09:34:11;;;;;;;2.15;1.30;;;13.60;99.90;;;;;;5015081;28;20084;-44
2023/12/14 09:36:37;;;;;;;2.22;1.40;;;13.70;99.90;;;;;;5015049;28;20034;-44
2023/12/14 09:39:03;;;;;;;3.05;1.38;;;13.80;99.90;;;;;;5015501;28;20025;-43
2023/12/14 09:41:29;;;;;;;1.80;1.40;;;13.70;99.90;;;;;;5013837;28;20026;-43
2023/12/14 09:43:55;;;;;;;2.63;1.40;;;13.80;99.90;;;;;;5013649;28;20018;-44
2023/12/14 09:46:21;;;;;;;2.03;1.27;;;13.90;99.90;;;;;;5014515;28;20025;-41
2023/12/14 09:48:50;;;;;;;1.73;1.30;;;13.90;99.90;;;;;;5014704;28;20503;-43
2023/12/14 09:51:16;;;;;;;1.98;1.50;;;14.00;99.90;;;;;;5014726;28;20022;-43
2023/12/14 09:53:43;;;;;;;2.22;1.48;;;14.00;99.90;;;;;;5013645;28;20048;-41
2023/12/14 09:56:09;;;;;;;1.40;1.23;;;14.00;99.90;;;;;;5014060;28;20034;-39
2023/12/14 09:58:35;;;;;;;1.60;1.38;;;14.10;99.90;;;;;;5014540;28;20014;-42
2023/12/14 10:01:01;;;;;;;1.50;1.20;;;14.10;99.90;;;;;;5014726;28;20369;-43
2023/12/14 10:03:32;;;;;;;1.88;1.20;;;14.20;99.90;;;;;;5014074;28;20484;-44
2023/12/14 10:06:01;;;;;;;1.40;1.20;;;14.20;99.90;;;;;;5012310;28;20404;-44
2023/12/14 10:08:27;;;;;;;1.35;1.05;;;14.20;99.90;;;;;;5014232;28;20499;-43
2023/12/14 10:10:55;;;;;;;2.38;1.38;;;14.30;99.90;;;;;;5013453;28;20100;-44
2023/12/14 10:13:36;;;;;;;1.48;1.27;;;14.30;99.90;;;;;;5013546;28;20026;-43
2023/12/14 10:16:02;;;;;;;2.08;1.10;;;14.30;99.90;;;;;;5013474;28;20033;-43
2023/12/14 10:18:29;;;;;;;1.58;1.17;;;14.30;99.90;;;;;;5014282;28;20034;-42
2023/12/14 10:20:55;;;;;;;2.88;1.15;;;14.40;99.90;;;;;;5014242;28;20538;-44
2023/12/14 10:23:21;;;;;;;1.20;1.10;;;14.40;99.90;;;;;;5013828;28;20038;-43
2023/12/14 10:25:47;;;;;;;1.52;1.20;;;14.40;99.90;;;;;;5013918;28;20548;-44
2023/12/14 10:28:13;;;;;;;1.55;1.17;;;14.40;99.90;;;;;;5013573;28;20049;-44
2023/12/14 10:30:40;;;;;;;1.23;0.93;;;14.40;99.90;;;;;;5013020;28;20110;-44
2023/12/14 10:33:05;;;;;;;1.40;1.00;;;14.50;99.90;;;;;;5012909;28;20519;-44
2023/12/14 10:35:31;;;;;;;1.88;1.40;;;14.50;99.90;;;;;;5012891;28;20030;-43
2023/12/14 10:38:05;;;;;;;1.20;1.10;;;14.50;99.90;;;;;;5013209;28;20022;-41
2023/12/14 10:40:32;;;;;;;1.45;1.10;;;14.50;99.90;;;;;;5014032;28;20022;-44
2023/12/14 10:43:00;;;;;;;1.35;1.13;;;14.60;99.90;;;;;;5013042;28;20030;-43
2023/12/14 10:45:32;;;;;;;1.30;1.00;;;14.60;99.90;;;;;;5013261;28;20018;-44
2023/12/14 10:48:03;;;;;;;1.27;1.17;;;14.60;99.90;;;;;;5012831;28;20060;-40
2023/12/14 10:50:30;;;;;;;1.67;1.15;;;14.60;99.90;;;;;;5012434;28;20108;-43
2023/12/14 10:52:58;;;;;;;1.15;0.90;;;14.70;99.90;;;;;;5014413;28;20026;-40
2023/12/14 10:55:37;;;;;;;2.05;1.25;;;14.70;99.90;;;;;;5013323;28;20365;-44
2023/12/14 10:58:04;;;;;;;1.95;1.17;;;14.70;99.90;;;;;;5012780;28;20103;-43
2023/12/14 11:00:31;;;;;;;1.00;0.88;;;14.80;99.90;;;;;;5012468;28;20076;-44
2023/12/14 11:02:57;;;;;;;2.67;1.00;;;14.80;99.90;;;;;;5012283;28;20034;-41
2023/12/14 11:05:29;;;;;;;1.13;0.77;;;14.80;99.90;;;;;;5012943;28;20499;-44
2023/12/14 11:08:09;;;;;;;1.77;1.10;;;14.80;99.90;;;;;;5012322;28;20057;-42
2023/12/14 11:10:43;;;;;;;1.25;1.02;;;14.90;99.90;;;;;;5012582;28;20022;-44
2023/12/14 11:13:13;;;;;;;0.88;0.80;;;14.90;99.90;;;;;;5012959;28;20064;-43
2023/12/14 11:15:40;;;;;;;1.33;0.95;;;15.00;99.90;;;;;;5013176;28;20121;-44
2023/12/14 11:18:12;;;;;;;1.23;1.00;;;15.00;99.90;;;;;;5011343;28;20049;-44
2023/12/14 11:20:49;;;;;;;1.70;0.98;;;15.00;99.90;;;;;;5013850;28;20041;-44
2023/12/14 11:23:24;;;;;;;1.35;1.00;;;15.00;99.90;;;;;;5013060;28;20116;-43
2023/12/14 11:25:53;;;;;;;1.40;0.85;;;15.10;99.90;;;;;;5013093;28;20026;-44
2023/12/14 11:28:19;;;;;;;1.40;0.95;;;15.10;99.90;;;;;;5012415;28;20060;-44
2023/12/14 11:30:46;;;;;;;1.20;0.90;;;15.20;99.90;;;;;;5012502;28;20022;-44
2023/12/14 11:33:13;;;;;;;1.70;1.15;;;15.20;99.90;;;;;;5013507;28;20388;-44
2023/12/14 11:35:39;;;;;;;1.08;0.90;;;15.30;99.90;;;;;;5013481;28;20060;-44
2023/12/14 11:38:10;;;;;;;1.42;0.90;;;15.30;99.90;;;;;;5011780;28;20049;-43
2023/12/14 11:40:36;;;;;;;1.13;0.80;;;15.30;99.90;;;;;;5012812;28;20022;-44
2023/12/14 11:43:09;;;;;;;1.10;0.80;;;15.40;99.90;;;;;;5012657;28;20049;-44
2023/12/14 11:45:39;;;;;;;1.00;0.80;;;15.40;99.90;;;;;;5013222;28;20018;-43
2023/12/14 11:48:10;;;;;;;1.20;0.98;;;15.40;99.90;;;;;;5012583;28;20033;-44
2023/12/14 11:50:40;;;;;;;0.82;0.73;;;15.50;99.90;;;;;;5012926;28;20022;-43
2023/12/14 11:53:07;;;;;;;1.50;1.00;;;15.50;99.90;;;;;;5013937;28;20022;-44
2023/12/14 11:55:36;;;;;;;0.98;0.70;;;15.50;99.90;;;;;;5011865;28;20033;-44
2023/12/14 11:58:03;;;;;;;1.38;0.90;;;15.50;99.90;;;;;;5011391;28;20112;-43
2023/12/14 12:00:30;;;;;;;0.88;0.70;;;15.50;99.90;;;;;;5012453;28;20108;-44
2023/12/14 12:03:14;;;;;;;0.98;0.80;;;15.60;99.90;;;;;;5011512;28;20038;-44
2023/12/14 12:05:41;;;;;;;1.67;1.00;;;15.60;99.90;;;;;;5011382;28;20097;-43
2023/12/14 12:08:09;;;;;;;1.20;0.80;;;15.60;99.90;;;;;;5011602;28;20033;-44
2023/12/14 12:10:36;;;;;;;1.42;1.10;;;15.60;99.90;;;;;;5012890;28;20547;-43
2023/12/14 12:13:04;;;;;;;0.82;0.70;;;15.60;99.90;;;;;;5012393;28;20037;-43
2023/12/14 12:15:31;;;;;;;1.00;0.80;;;15.60;99.90;;;;;;5012658;28;20101;-42
2023/12/14 12:17:58;;;;;;;2.95;0.90;;;15.60;99.90;;;;;;5011381;28;20022;-43
2023/12/14 12:20:25;;;;;;;3.03;1.48;;;15.70;99.90;;;;;;5022774;28;20563;-45
2023/12/14 12:22:51;;;;;;;2.63;2.00;;;15.70;99.90;;;;;;5020603;28;20030;-41
2023/12/14 12:25:16;;;;;;;2.33;1.90;;;15.70;99.90;;;;;;5015561;28;20080;-43
2023/12/14 12:27:43;;;;;;;1.85;1.35;;;15.70;99.90;;;;;;5030805;28;20029;-43
2023/12/14 12:30:10;;;;;;;1.92;1.58;;;15.70;99.90;;;;;;5034323;28;20025;-43
2023/12/14 12:32:35;;;;;;;2.25;1.70;;;15.70;99.90;;;;;;5034779;28;20104;-40
2023/12/14 12:35:01;;;;;;;2.83;1.75;;;15.70;99.90;;;;;;5035833;28;20220;-44
2023/12/14 12:37:26;;;;;;;3.05;1.90;;;15.70;99.90;;;;;;5035688;28;20041;-43
2023/12/14 12:39:52;;;;;;;2.92;2.00;;;15.70;99.90;;;;;;5033758;28;20021;-43
2023/12/14 12:42:18;;;;;;;2.65;1.90;;;15.70;99.90;;;;;;5035118;28;20029;-43
2023/12/14 12:44:44;;;;;;;2.88;1.80;;;15.80;99.90;;;;;;5034623;28;20029;-41